Time;durP1;ratioP1;P1;durP2;ratioP2;P2;SDS_P1;SDS_P2;PMS_P1;PMS_P2;Temp;Humidity;BMP_temperature;BMP_pressure;BME280_temperature;BME280_humidity;BME280_pressure;Samples;Min_cycle;Max_cycle;Signal;HPM_P1;HPM_P2
2023/01/25 00:01:17;;;;;;;66.82;34.03;;;;;;;;;;4934413;29;20470;-63
2023/01/25 00:03:43;;;;;;;57.95;31.33;;;;;;;;;;4933779;29;20135;-63
2023/01/25 00:06:09;;;;;;;61.88;31.67;;;;;;;;;;4934559;29;20082;-63
2023/01/25 00:08:37;;;;;;;59.17;32.10;;;;;;;;;;4936019;29;20047;-63
2023/01/25 00:11:03;;;;;;;59.30;31.05;;;;;;;;;;4953123;29;20508;-63
2023/01/25 00:13:29;;;;;;;62.80;32.17;;;;;;;;;;4953134;29;20071;-63
2023/01/25 00:16:01;;;;;;;59.40;32.42;;;;;;;;;;4953451;29;20039;-63
2023/01/25 00:18:27;;;;;;;;;;;;;;;;;;4953350;29;20391;-63
2023/01/25 00:20:53;;;;;;;57.25;30.58;;;;;;;;;;4968560;28;20020;-63
2023/01/25 00:23:20;;;;;;;60.00;31.67;;;;;;;;;;4972561;28;20089;-63
2023/01/25 00:25:46;;;;;;;53.78;30.30;;;;;;;;;;4965376;28;20094;-63
2023/01/25 00:28:12;;;;;;;58.03;30.58;;;;;;;;;;4953226;29;20049;-63
2023/01/25 00:30:38;;;;;;;62.67;32.22;;;;;;;;;;4953029;29;20090;-63
2023/01/25 00:33:26;;;;;;;64.00;32.25;;;;;;;;;;4952573;29;20421;-63
2023/01/25 00:35:55;;;;;;;56.35;31.55;;;;;;;;;;4952098;28;20119;-63
2023/01/25 00:38:28;;;;;;;60.88;30.73;;;;;;;;;;4952946;29;20039;-63
2023/01/25 00:40:54;;;;;;;58.08;32.17;;;;;;;;;;4952602;29;20098;-63
2023/01/25 00:43:20;;;;;;;63.00;33.38;;;;;;;;;;4952544;29;20089;-63
2023/01/25 00:45:46;;;;;;;59.55;31.70;;;;;;;;;;4952679;29;20051;-63
2023/01/25 00:48:12;;;;;;;62.38;33.08;;;;;;;;;;4952311;29;20051;-63
2023/01/25 00:50:39;;;;;;;58.28;30.90;;;;;;;;;;4935333;29;20043;-63
2023/01/25 00:53:05;;;;;;;57.25;31.17;;;;;;;;;;4952644;29;20050;-63
2023/01/25 00:55:31;;;;;;;54.53;29.52;;;;;;;;;;4952165;29;20094;-63
2023/01/25 00:57:57;;;;;;;60.75;31.83;;;;;;;;;;4952872;29;20039;-63
2023/01/25 01:00:23;;;;;;;56.38;30.25;;;;;;;;;;4952759;29;20051;-63
2023/01/25 01:02:49;;;;;;;55.75;29.60;;;;;;;;;;4952371;29;20426;-63
2023/01/25 01:05:15;;;;;;;56.75;30.92;;;;;;;;;;4952833;29;20406;-63
2023/01/25 01:07:42;;;;;;;55.13;29.92;;;;;;;;;;4952935;29;20646;-63
2023/01/25 01:10:08;;;;;;;57.60;30.00;;;;;;;;;;4966384;28;20042;-63
2023/01/25 01:12:34;;;;;;;54.17;29.15;;;;;;;;;;4971732;28;20069;-63
2023/01/25 01:15:00;;;;;;;56.10;30.98;;;;;;;;;;4971657;28;20518;-63
2023/01/25 01:17:26;;;;;;;54.55;28.85;;;;;;;;;;4971595;28;20496;-63
2023/01/25 01:19:53;;;;;;;57.45;31.23;;;;;;;;;;4971492;28;20062;-63
2023/01/25 01:22:19;;;;;;;53.67;29.13;;;;;;;;;;4971795;28;20465;-63
2023/01/25 01:24:47;;;;;;;59.55;31.35;;;;;;;;;;4970947;28;20042;-63
2023/01/25 01:27:13;;;;;;;56.60;30.25;;;;;;;;;;4953467;28;20105;-63
2023/01/25 01:29:40;;;;;;;55.90;31.42;;;;;;;;;;4952307;29;20051;-63
2023/01/25 01:32:06;;;;;;;62.05;33.30;;;;;;;;;;4952149;29;20047;-63
2023/01/25 01:34:33;;;;;;;55.30;30.67;;;;;;;;;;4952422;29;20035;-63
2023/01/25 01:36:58;;;;;;;54.80;29.90;;;;;;;;;;4952337;29;20110;-63
2023/01/25 01:39:25;;;;;;;54.30;29.75;;;;;;;;;;4952005;29;20035;-63
2023/01/25 01:41:51;;;;;;;55.95;31.10;;;;;;;;;;4952231;29;20525;-63
2023/01/25 01:44:19;;;;;;;59.22;31.42;;;;;;;;;;4952150;29;20130;-63
2023/01/25 01:46:55;;;;;;;59.63;31.45;;;;;;;;;;4951856;29;20531;-63
2023/01/25 01:49:27;;;;;;;58.38;30.83;;;;;;;;;;4954871;29;20397;-63
2023/01/25 01:51:53;;;;;;;55.57;30.83;;;;;;;;;;4956048;29;20050;-63
2023/01/25 01:54:28;;;;;;;54.63;30.08;;;;;;;;;;4955542;29;20759;-63
2023/01/25 01:57:13;;;;;;;58.80;30.20;;;;;;;;;;4955882;29;20043;-63
2023/01/25 01:59:44;;;;;;;56.75;30.85;;;;;;;;;;4955874;29;20409;-63
2023/01/25 02:02:11;;;;;;;54.55;30.58;;;;;;;;;;4955595;29;20130;-63
2023/01/25 02:04:37;;;;;;;56.38;30.50;;;;;;;;;;4955619;29;20061;-63
2023/01/25 02:07:06;;;;;;;58.67;30.95;;;;;;;;;;4955765;29;20106;-63
2023/01/25 02:09:34;;;;;;;60.15;31.70;;;;;;;;;;4947609;28;20054;-63
2023/01/25 02:12:00;;;;;;;57.67;32.22;;;;;;;;;;4974918;28;20149;-63
2023/01/25 02:14:27;;;;;;;58.40;30.70;;;;;;;;;;4957517;28;20042;-63
2023/01/25 02:16:53;;;;;;;57.88;31.98;;;;;;;;;;4974485;28;20466;-63
2023/01/25 02:19:46;;;;;;;58.95;31.25;;;;;;;;;;4974488;28;20058;-63
2023/01/25 02:22:15;;;;;;;61.10;32.92;;;;;;;;;;4951688;28;20050;-63
2023/01/25 02:24:46;;;;;;;56.22;30.38;;;;;;;;;;4974283;28;20509;-63
2023/01/25 02:27:12;;;;;;;55.47;31.08;;;;;;;;;;4956638;28;20079;-63
2023/01/25 02:29:39;;;;;;;63.08;32.53;;;;;;;;;;4954965;29;20136;-64
2023/01/25 02:32:05;;;;;;;59.05;31.48;;;;;;;;;;4955141;29;20054;-63
2023/01/25 02:34:31;;;;;;;56.80;31.48;;;;;;;;;;4955191;29;20113;-63
2023/01/25 02:36:58;;;;;;;56.83;31.27;;;;;;;;;;4955271;29;20488;-63
2023/01/25 02:39:25;;;;;;;61.55;32.08;;;;;;;;;;4954440;29;20106;-63
2023/01/25 02:41:51;;;;;;;59.75;31.63;;;;;;;;;;4955176;29;20043;-63
2023/01/25 02:44:20;;;;;;;58.22;31.15;;;;;;;;;;4955042;29;20122;-63
2023/01/25 02:46:47;;;;;;;58.70;30.70;;;;;;;;;;4954829;29;20035;-63
2023/01/25 02:49:13;;;;;;;59.25;31.45;;;;;;;;;;4954905;29;20102;-63
2023/01/25 02:51:41;;;;;;;59.95;32.60;;;;;;;;;;4955122;29;20047;-63
2023/01/25 02:54:08;;;;;;;60.38;32.63;;;;;;;;;;4954369;29;20043;-63
2023/01/25 02:56:34;;;;;;;59.55;32.17;;;;;;;;;;4954662;29;20062;-63
2023/01/25 02:59:04;;;;;;;63.65;32.13;;;;;;;;;;4953988;28;20039;-63
2023/01/25 03:01:31;;;;;;;62.63;33.65;;;;;;;;;;4954391;29;20121;-63
2023/01/25 03:03:57;;;;;;;59.45;32.90;;;;;;;;;;4954085;29;20043;-63
2023/01/25 03:06:23;;;;;;;61.22;32.72;;;;;;;;;;4937146;29;20055;-63
2023/01/25 03:08:49;;;;;;;61.28;33.17;;;;;;;;;;4957898;28;20039;-63
2023/01/25 03:11:16;;;;;;;60.67;32.53;;;;;;;;;;4973694;28;20046;-63
2023/01/25 03:13:42;;;;;;;60.58;32.35;;;;;;;;;;4973269;28;20050;-63
2023/01/25 03:16:09;;;;;;;62.90;33.25;;;;;;;;;;4973465;28;20117;-63
2023/01/25 03:18:36;;;;;;;63.53;34.63;;;;;;;;;;4973275;28;20046;-63
2023/01/25 03:21:09;;;;;;;61.90;33.17;;;;;;;;;;4973436;28;20142;-63
2023/01/25 03:23:35;;;;;;;61.70;33.30;;;;;;;;;;4973213;28;20061;-63
2023/01/25 03:26:05;;;;;;;57.55;31.13;;;;;;;;;;4964883;28;20062;-63
2023/01/25 03:28:31;;;;;;;63.95;33.53;;;;;;;;;;4954314;29;20122;-63
2023/01/25 03:30:57;;;;;;;60.85;32.28;;;;;;;;;;4953787;29;20805;-63
2023/01/25 03:33:23;;;;;;;62.15;32.65;;;;;;;;;;4954107;29;20054;-63
2023/01/25 03:35:53;;;;;;;57.30;31.58;;;;;;;;;;4954165;29;20466;-63
2023/01/25 03:38:19;;;;;;;60.85;31.88;;;;;;;;;;4953657;29;20051;-63
2023/01/25 03:40:46;;;;;;;59.15;33.58;;;;;;;;;;4953780;29;20047;-63
2023/01/25 03:43:12;;;;;;;58.47;32.67;;;;;;;;;;4954093;29;20043;-63
2023/01/25 03:45:38;;;;;;;59.58;31.90;;;;;;;;;;4936303;29;20115;-63
2023/01/25 03:48:04;;;;;;;61.42;33.25;;;;;;;;;;4954067;29;20490;-63
2023/01/25 03:50:30;;;;;;;57.40;30.77;;;;;;;;;;4953820;29;20164;-63
2023/01/25 03:53:08;;;;;;;61.20;32.65;;;;;;;;;;4953369;29;20434;-63
2023/01/25 03:55:35;;;;;;;57.50;31.48;;;;;;;;;;4953624;29;20093;-63
2023/01/25 03:58:01;;;;;;;57.13;31.73;;;;;;;;;;4953743;29;20035;-63
2023/01/25 04:00:27;;;;;;;58.35;31.83;;;;;;;;;;4953266;29;20106;-63
2023/01/25 04:02:53;;;;;;;58.30;30.58;;;;;;;;;;4953611;29;20051;-63
2023/01/25 04:05:19;;;;;;;59.38;31.80;;;;;;;;;;4953301;29;20664;-63
2023/01/25 04:07:45;;;;;;;55.67;29.80;;;;;;;;;;4953418;29;20058;-63
2023/01/25 04:10:11;;;;;;;56.40;30.75;;;;;;;;;;4967620;28;20718;-63
2023/01/25 04:12:37;;;;;;;56.58;31.13;;;;;;;;;;4972319;28;20069;-63
2023/01/25 04:15:03;;;;;;;55.83;29.60;;;;;;;;;;4972159;28;20126;-63
2023/01/25 04:17:29;;;;;;;54.13;29.40;;;;;;;;;;4955619;28;20050;-63
2023/01/25 04:19:55;;;;;;;54.30;28.35;;;;;;;;;;4972292;28;20094;-63
2023/01/25 04:22:21;;;;;;;50.42;27.15;;;;;;;;;;4972268;28;20085;-63
2023/01/25 04:24:47;;;;;;;46.83;26.42;;;;;;;;;;4972282;28;20449;-63
2023/01/25 04:27:13;;;;;;;47.88;27.17;;;;;;;;;;4954247;28;20047;-63
2023/01/25 04:29:39;;;;;;;47.17;26.35;;;;;;;;;;4953142;29;20806;-63
2023/01/25 04:32:05;;;;;;;49.35;27.98;;;;;;;;;;4952932;29;20054;-63
2023/01/25 04:34:31;;;;;;;50.42;25.80;;;;;;;;;;4953133;29;20506;-63
2023/01/25 04:36:57;;;;;;;46.10;26.17;;;;;;;;;;4952524;29;20081;-63
2023/01/25 04:39:23;;;;;;;45.00;25.45;;;;;;;;;;4953128;29;20050;-63
2023/01/25 04:41:49;;;;;;;50.20;26.33;;;;;;;;;;4952565;29;20099;-63
2023/01/25 04:44:15;;;;;;;48.72;28.17;;;;;;;;;;4935258;29;20170;-63
2023/01/25 04:46:42;;;;;;;49.00;26.35;;;;;;;;;;4952696;29;20043;-63
2023/01/25 04:49:08;;;;;;;48.70;27.15;;;;;;;;;;4953073;29;20059;-63
2023/01/25 04:51:34;;;;;;;49.35;27.27;;;;;;;;;;4952671;29;20130;-63
2023/01/25 04:54:00;;;;;;;47.95;25.83;;;;;;;;;;4952601;29;20043;-63
2023/01/25 04:56:26;;;;;;;50.35;25.60;;;;;;;;;;4952660;29;20419;-63
2023/01/25 04:58:52;;;;;;;46.42;25.88;;;;;;;;;;4952698;29;20141;-63
2023/01/25 05:01:18;;;;;;;46.05;26.65;;;;;;;;;;4952027;29;20039;-63
2023/01/25 05:03:44;;;;;;;46.63;25.55;;;;;;;;;;4952535;29;20051;-63
2023/01/25 05:06:10;;;;;;;48.22;26.88;;;;;;;;;;4952594;29;20145;-63
2023/01/25 05:08:36;;;;;;;47.45;25.70;;;;;;;;;;4954319;28;20649;-63
2023/01/25 05:11:02;;;;;;;52.47;27.75;;;;;;;;;;4971845;28;20625;-63
2023/01/25 05:13:28;;;;;;;48.10;25.85;;;;;;;;;;4971640;28;20039;-63
2023/01/25 05:15:55;;;;;;;47.53;27.13;;;;;;;;;;4971516;28;20050;-63
2023/01/25 05:18:21;;;;;;;47.42;25.92;;;;;;;;;;4971769;28;20437;-63
2023/01/25 05:20:47;;;;;;;48.13;26.33;;;;;;;;;;4971556;28;20050;-63
2023/01/25 05:23:13;;;;;;;50.55;27.42;;;;;;;;;;4973816;28;20100;-63
2023/01/25 05:28:24;;;;;;;50.15;26.83;;;;;;;;;;4956317;29;20095;-63
2023/01/25 05:30:50;;;;;;;52.08;26.95;;;;;;;;;;4956019;29;20047;-63
2023/01/25 05:33:16;;;;;;;51.22;27.23;;;;;;;;;;4956320;29;20039;-63
2023/01/25 05:35:43;;;;;;;50.30;27.55;;;;;;;;;;4956442;29;20126;-63
2023/01/25 05:38:09;;;;;;;51.40;28.02;;;;;;;;;;4955940;29;20610;-63
2023/01/25 05:40:35;;;;;;;53.10;27.70;;;;;;;;;;4956288;29;20469;-63
2023/01/25 05:43:01;;;;;;;52.95;27.55;;;;;;;;;;4938522;29;20050;-64
2023/01/25 05:45:28;;;;;;;54.45;28.15;;;;;;;;;;4955929;29;20098;-63
2023/01/25 05:47:55;;;;;;;54.15;27.35;;;;;;;;;;4956060;29;20047;-63
2023/01/25 05:50:22;;;;;;;51.72;27.80;;;;;;;;;;4956093;29;20491;-63
2023/01/25 05:52:48;;;;;;;53.90;27.88;;;;;;;;;;4938183;29;20047;-63
2023/01/25 05:55:14;;;;;;;55.88;28.15;;;;;;;;;;4955831;29;20098;-63
2023/01/25 05:57:40;;;;;;;57.40;29.17;;;;;;;;;;4955852;29;20074;-63
2023/01/25 06:00:07;;;;;;;54.30;28.83;;;;;;;;;;4955204;29;20047;-63
2023/01/25 06:02:33;;;;;;;55.45;29.63;;;;;;;;;;4955813;29;20054;-63
2023/01/25 06:04:59;;;;;;;56.75;27.98;;;;;;;;;;4955189;29;20047;-63
2023/01/25 06:07:25;;;;;;;54.10;27.70;;;;;;;;;;4961034;28;20046;-63
2023/01/25 06:09:51;;;;;;;52.70;28.38;;;;;;;;;;4974184;28;20047;-63
2023/01/25 06:12:20;;;;;;;49.47;27.08;;;;;;;;;;4972092;28;20454;-63
2023/01/25 06:14:46;;;;;;;54.70;27.33;;;;;;;;;;4972609;28;20066;-63
2023/01/25 06:17:12;;;;;;;56.20;27.85;;;;;;;;;;4960453;28;20035;-63
2023/01/25 06:19:39;;;;;;;54.25;28.20;;;;;;;;;;4954818;29;20047;-62
2023/01/25 06:22:07;;;;;;;55.47;28.60;;;;;;;;;;4968416;28;20034;-63
2023/01/25 06:24:33;;;;;;;52.67;27.75;;;;;;;;;;4974541;28;20042;-63
2023/01/25 06:26:59;;;;;;;57.70;28.27;;;;;;;;;;4958023;28;20051;-63
2023/01/25 06:29:25;;;;;;;52.95;28.17;;;;;;;;;;4954871;29;20039;-63
2023/01/25 06:31:54;;;;;;;52.67;27.13;;;;;;;;;;4971266;28;20110;-63
2023/01/25 06:34:21;;;;;;;55.58;28.58;;;;;;;;;;4972359;28;20505;-62
2023/01/25 06:36:48;;;;;;;53.88;28.52;;;;;;;;;;4973541;28;20047;-63
2023/01/25 06:39:14;;;;;;;54.90;28.42;;;;;;;;;;4955710;28;20055;-63
2023/01/25 06:41:40;;;;;;;56.13;29.02;;;;;;;;;;4973768;28;20477;-63
2023/01/25 06:44:06;;;;;;;53.92;28.92;;;;;;;;;;4972786;28;20113;-63
2023/01/25 06:46:32;;;;;;;59.30;29.45;;;;;;;;;;4973442;28;20498;-63
2023/01/25 06:48:58;;;;;;;57.17;29.23;;;;;;;;;;4972981;28;20039;-62
2023/01/25 06:51:24;;;;;;;54.05;27.35;;;;;;;;;;4973559;28;20047;-63
2023/01/25 06:53:50;;;;;;;52.28;27.23;;;;;;;;;;4943780;29;20043;-63
2023/01/25 06:56:21;;;;;;;55.28;27.63;;;;;;;;;;4954297;29;20039;-63
2023/01/25 06:58:47;;;;;;;51.38;25.48;;;;;;;;;;4951551;28;20051;-63
2023/01/25 07:01:15;;;;;;;55.17;27.70;;;;;;;;;;4969384;28;20043;-63
2023/01/25 07:03:47;;;;;;;53.65;27.25;;;;;;;;;;4969946;28;20050;-63
2023/01/25 07:06:13;;;;;;;53.88;27.83;;;;;;;;;;4971613;28;20394;-63
2023/01/25 07:08:39;;;;;;;53.85;27.80;;;;;;;;;;4970433;28;20038;-63
2023/01/25 07:11:08;;;;;;;53.15;26.58;;;;;;;;;;4958502;28;20105;-63
2023/01/25 07:13:34;;;;;;;55.95;28.45;;;;;;;;;;4939380;29;20051;-63
2023/01/25 07:16:05;;;;;;;58.22;28.90;;;;;;;;;;4943846;28;20042;-63
2023/01/25 07:18:32;;;;;;;54.85;28.92;;;;;;;;;;4973521;28;20074;-63
2023/01/25 07:21:02;;;;;;;58.40;28.67;;;;;;;;;;4971623;28;20121;-63
2023/01/25 07:23:31;;;;;;;57.97;29.05;;;;;;;;;;4973226;28;20088;-63
2023/01/25 07:25:57;;;;;;;59.47;28.70;;;;;;;;;;4964042;28;20042;-63
2023/01/25 07:28:24;;;;;;;57.55;29.35;;;;;;;;;;4972792;28;20129;-62
2023/01/25 07:30:50;;;;;;;58.08;29.40;;;;;;;;;;4949474;28;20047;-62
2023/01/25 07:33:16;;;;;;;60.72;28.58;;;;;;;;;;4951466;28;20054;-62
2023/01/25 07:35:42;;;;;;;55.08;28.48;;;;;;;;;;4951580;29;20035;-63
2023/01/25 07:38:08;;;;;;;53.97;28.20;;;;;;;;;;4956463;28;20093;-62
2023/01/25 07:40:34;;;;;;;56.95;29.40;;;;;;;;;;4972502;28;20050;-63
2023/01/25 07:43:01;;;;;;;55.72;27.80;;;;;;;;;;4961411;28;20043;-62
2023/01/25 07:45:30;;;;;;;55.05;28.25;;;;;;;;;;4951769;28;20058;-63
2023/01/25 07:47:57;;;;;;;53.97;27.77;;;;;;;;;;4959389;28;20757;-62
2023/01/25 07:50:23;;;;;;;51.75;27.00;;;;;;;;;;4957199;28;20118;-62
2023/01/25 07:52:49;;;;;;;53.60;27.90;;;;;;;;;;4963864;28;20485;-62
2023/01/25 07:55:15;;;;;;;54.70;27.98;;;;;;;;;;4953466;28;20118;-62
2023/01/25 07:57:41;;;;;;;51.72;27.63;;;;;;;;;;4963468;28;20070;-63
2023/01/25 08:00:08;;;;;;;52.42;26.90;;;;;;;;;;4951921;28;20043;-63
2023/01/25 08:02:34;;;;;;;52.42;26.80;;;;;;;;;;4951495;28;20047;-63
2023/01/25 08:05:00;;;;;;;52.30;28.52;;;;;;;;;;4959323;28;20125;-63
2023/01/25 08:07:28;;;;;;;55.35;28.02;;;;;;;;;;4953124;28;20463;-63
2023/01/25 08:09:54;;;;;;;53.47;26.60;;;;;;;;;;4959087;28;20075;-63
2023/01/25 08:12:21;;;;;;;55.15;27.38;;;;;;;;;;4955742;28;20043;-63
2023/01/25 08:14:49;;;;;;;51.97;26.27;;;;;;;;;;4964439;28;20115;-63
2023/01/25 08:17:15;;;;;;;59.47;28.95;;;;;;;;;;4969509;28;20042;-63
2023/01/25 08:19:41;;;;;;;53.63;26.02;;;;;;;;;;4953941;28;20047;-63
2023/01/25 08:22:07;;;;;;;55.00;28.50;;;;;;;;;;4965966;28;20050;-63
2023/01/25 08:24:34;;;;;;;55.85;26.35;;;;;;;;;;4951732;28;20110;-63
2023/01/25 08:27:00;;;;;;;52.33;26.88;;;;;;;;;;4953440;28;20086;-63
2023/01/25 08:29:26;;;;;;;51.83;26.20;;;;;;;;;;4960161;28;20042;-63
2023/01/25 08:31:53;;;;;;;58.00;27.88;;;;;;;;;;4951370;28;20051;-62
2023/01/25 08:34:19;;;;;;;54.75;27.85;;;;;;;;;;4968024;28;20043;-63
2023/01/25 08:36:45;;;;;;;56.92;27.58;;;;;;;;;;4966569;28;20043;-63
2023/01/25 08:39:12;;;;;;;54.70;27.60;;;;;;;;;;4966612;28;20037;-63
2023/01/25 08:41:38;;;;;;;56.70;28.17;;;;;;;;;;4952560;28;20047;-62
2023/01/25 08:44:04;;;;;;;54.78;27.48;;;;;;;;;;4970372;28;20051;-63
2023/01/25 08:46:31;;;;;;;55.00;27.25;;;;;;;;;;4950033;28;20122;-63
2023/01/25 08:48:58;;;;;;;57.13;26.17;;;;;;;;;;4963379;28;20042;-63
2023/01/25 08:51:25;;;;;;;55.40;28.48;;;;;;;;;;4970131;28;20474;-63
2023/01/25 08:53:51;;;;;;;54.72;26.80;;;;;;;;;;4970287;28;20042;-63
2023/01/25 08:56:17;;;;;;;53.65;26.42;;;;;;;;;;4970382;28;20039;-63
2023/01/25 08:58:45;;;;;;;54.78;27.15;;;;;;;;;;4969849;28;20050;-63
2023/01/25 09:01:12;;;;;;;54.45;26.60;;;;;;;;;;4963606;28;20177;-63
2023/01/25 09:03:40;;;;;;;55.95;27.63;;;;;;;;;;4967916;28;20137;-63
2023/01/25 09:06:07;;;;;;;55.88;27.58;;;;;;;;;;4968760;28;20038;-63
2023/01/25 09:08:33;;;;;;;53.97;26.63;;;;;;;;;;4968999;28;20535;-63
2023/01/25 09:11:04;;;;;;;53.97;26.65;;;;;;;;;;4969598;28;20136;-62
2023/01/25 09:13:30;;;;;;;56.55;27.00;;;;;;;;;;4962327;28;20070;-63
2023/01/25 09:16:03;;;;;;;53.70;26.00;;;;;;;;;;4970335;28;20477;-63
2023/01/25 09:18:30;;;;;;;52.40;25.52;;;;;;;;;;4969600;28;20035;-63
2023/01/25 09:20:56;;;;;;;47.58;25.98;;;;;;;;;;4969959;28;20046;-63
2023/01/25 09:23:22;;;;;;;53.28;26.63;;;;;;;;;;4961063;28;20046;-63
2023/01/25 09:25:49;;;;;;;54.42;25.80;;;;;;;;;;4960651;28;20046;-65
2023/01/25 09:28:15;;;;;;;52.03;27.40;;;;;;;;;;4967362;28;20035;-64
2023/01/25 09:30:41;;;;;;;54.92;26.65;;;;;;;;;;4950902;28;20051;-64
2023/01/25 09:33:07;;;;;;;51.55;25.23;;;;;;;;;;4961971;28;20039;-64
2023/01/25 09:35:34;;;;;;;55.00;28.30;;;;;;;;;;4958309;28;20501;-64
2023/01/25 09:38:01;;;;;;;55.47;26.58;;;;;;;;;;4950889;28;20051;-63
2023/01/25 09:40:31;;;;;;;48.20;25.48;;;;;;;;;;4925521;28;20039;-63
2023/01/25 09:43:20;;;;;;;50.00;24.38;;;;;;;;;;4958002;28;20058;-62
2023/01/25 09:45:47;;;;;;;55.72;26.73;;;;;;;;;;4959258;28;20051;-63
2023/01/25 09:48:45;;;;;;;53.60;26.73;;;;;;;;;;4964015;28;20043;-63
2023/01/25 09:51:19;;;;;;;54.10;26.17;;;;;;;;;;4927988;29;20058;-63
2023/01/25 09:53:50;;;;;;;55.53;27.55;;;;;;;;;;4933815;28;20418;-63
2023/01/25 09:56:16;;;;;;;54.33;26.90;;;;;;;;;;4956996;28;20049;-63
2023/01/25 09:58:50;;;;;;;50.88;26.10;;;;;;;;;;4970272;28;20126;-64
2023/01/25 10:01:16;;;;;;;51.83;25.00;;;;;;;;;;4964507;28;20359;-64
2023/01/25 10:03:51;;;;;;;55.15;26.20;;;;;;;;;;4957649;28;20094;-64
2023/01/25 10:06:22;;;;;;;50.63;24.27;;;;;;;;;;4963636;28;20441;-64
2023/01/25 10:08:48;;;;;;;51.45;24.60;;;;;;;;;;4954584;28;20039;-64
2023/01/25 10:11:25;;;;;;;49.72;23.25;;;;;;;;;;4953785;28;20059;-64
2023/01/25 10:13:51;;;;;;;49.92;24.23;;;;;;;;;;4962176;28;20039;-63
2023/01/25 10:16:23;;;;;;;51.13;24.80;;;;;;;;;;4954578;29;20070;-63
2023/01/25 10:19:08;;;;;;;50.50;25.17;;;;;;;;;;4953587;28;20098;-63
2023/01/25 10:21:42;;;;;;;51.70;24.50;;;;;;;;;;4953930;28;20063;-64
2023/01/25 10:24:08;;;;;;;57.42;26.02;;;;;;;;;;4954133;29;20055;-64
2023/01/25 10:26:35;;;;;;;48.97;23.88;;;;;;;;;;4968541;28;20054;-64
2023/01/25 10:29:10;;;;;;;45.78;23.65;;;;;;;;;;4973243;28;20538;-63
2023/01/25 10:31:49;;;;;;;50.47;24.20;;;;;;;;;;4972883;28;20389;-63
2023/01/25 10:34:23;;;;;;;49.90;24.23;;;;;;;;;;4972797;28;20046;-63
2023/01/25 10:37:16;;;;;;;50.40;25.05;;;;;;;;;;4972482;28;20508;-63
2023/01/25 10:39:48;;;;;;;54.95;25.88;;;;;;;;;;4968380;28;20050;-63
2023/01/25 10:42:14;;;;;;;;;;;;;;;;;;4948859;28;20093;-63
2023/01/25 10:44:40;;;;;;;54.35;24.23;;;;;;;;;;4961933;28;19965;-63
2023/01/25 10:47:11;;;;;;;54.25;25.20;;;;;;;;;;4961770;28;20047;-64
2023/01/25 10:49:53;;;;;;;53.67;25.80;;;;;;;;;;4966020;28;20043;-63
2023/01/25 10:52:30;;;;;;;50.30;23.55;;;;;;;;;;4953617;28;20055;-63
2023/01/25 10:55:02;;;;;;;50.67;23.75;;;;;;;;;;4952394;28;20051;-63
2023/01/25 10:57:28;;;;;;;51.42;24.33;;;;;;;;;;4936307;29;20047;-63
2023/01/25 10:59:54;;;;;;;52.58;23.38;;;;;;;;;;4953812;28;20102;-62
2023/01/25 11:02:35;;;;;;;59.17;26.00;;;;;;;;;;4952591;28;20050;-63
2023/01/25 11:05:20;;;;;;;54.28;24.73;;;;;;;;;;4968633;28;20122;-63
2023/01/25 11:07:46;;;;;;;53.58;24.30;;;;;;;;;;4972418;28;20051;-62
2023/01/25 11:10:31;;;;;;;51.85;22.75;;;;;;;;;;4972153;28;20050;-63
2023/01/25 11:13:18;;;;;;;50.67;22.98;;;;;;;;;;4970613;28;20058;-63
2023/01/25 11:16:00;;;;;;;51.38;22.75;;;;;;;;;;4972178;28;20488;-63
2023/01/25 11:18:32;;;;;;;56.38;23.50;;;;;;;;;;4954337;28;20078;-63
2023/01/25 11:20:58;;;;;;;;;;;;;;;;;;4971746;28;20059;-63
2023/01/25 11:23:26;;;;;;;56.08;25.02;;;;;;;;;;4972360;28;19926;-63
2023/01/25 11:25:52;;;;;;;54.70;24.45;;;;;;;;;;4968854;28;20062;-63
2023/01/25 11:28:21;;;;;;;59.17;24.70;;;;;;;;;;4970327;28;20047;-63
2023/01/25 11:30:48;;;;;;;56.25;24.55;;;;;;;;;;4972261;28;20126;-62
2023/01/25 11:33:16;;;;;;;52.30;23.27;;;;;;;;;;4972192;28;20042;-63
2023/01/25 11:36:01;;;;;;;59.05;25.23;;;;;;;;;;4972195;28;20066;-63
2023/01/25 11:38:27;;;;;;;52.75;24.88;;;;;;;;;;4972187;28;20678;-63
2023/01/25 11:41:13;;;;;;;61.15;25.90;;;;;;;;;;4954435;28;20661;-63
2023/01/25 11:43:39;;;;;;;56.50;24.85;;;;;;;;;;4972300;28;20501;-63
2023/01/25 11:46:20;;;;;;;54.65;23.58;;;;;;;;;;4971577;28;20907;-63
2023/01/25 11:48:48;;;;;;;54.42;24.42;;;;;;;;;;4972314;28;20382;-63
2023/01/25 11:51:38;;;;;;;51.95;23.13;;;;;;;;;;4964359;28;20678;-63
2023/01/25 11:54:23;;;;;;;51.15;23.38;;;;;;;;;;4901653;28;20049;-63
2023/01/25 11:56:59;;;;;;;52.53;23.38;;;;;;;;;;4971433;28;20042;-63
2023/01/25 11:59:29;;;;;;;57.22;24.65;;;;;;;;;;4971495;28;20035;-63
2023/01/25 12:02:13;;;;;;;65.10;26.63;;;;;;;;;;4965106;28;20051;-63
2023/01/25 12:04:39;;;;;;;55.38;25.02;;;;;;;;;;4935154;29;20050;-63
2023/01/25 12:07:09;;;;;;;57.83;25.35;;;;;;;;;;4960427;28;20110;-63
2023/01/25 12:09:43;;;;;;;53.85;22.70;;;;;;;;;;4962166;28;20636;-62
2023/01/25 12:12:27;;;;;;;58.92;24.20;;;;;;;;;;4971708;28;20035;-62
2023/01/25 12:15:17;;;;;;;58.05;22.60;;;;;;;;;;4954058;28;20077;-62
2023/01/25 12:18:10;;;;;;;55.63;23.48;;;;;;;;;;4915073;28;20039;-62
2023/01/25 12:20:51;;;;;;;54.15;23.27;;;;;;;;;;4948437;28;20070;-63
2023/01/25 12:23:29;;;;;;;53.88;23.58;;;;;;;;;;4958012;28;20648;-62
2023/01/25 12:26:04;;;;;;;56.22;24.77;;;;;;;;;;4969881;28;20055;-63
2023/01/25 12:28:37;;;;;;;57.53;23.85;;;;;;;;;;4961938;28;20035;-63
2023/01/25 12:31:11;;;;;;;54.42;22.65;;;;;;;;;;4958966;28;20047;-63
2023/01/25 12:33:40;;;;;;;56.67;24.15;;;;;;;;;;4959300;28;20035;-63
2023/01/25 12:36:11;;;;;;;56.97;23.60;;;;;;;;;;4967960;28;20063;-62
2023/01/25 12:38:55;;;;;;;56.97;23.48;;;;;;;;;;4960543;28;20198;-63
2023/01/25 12:41:21;;;;;;;55.08;22.98;;;;;;;;;;4970878;28;20054;-62
2023/01/25 12:43:51;;;;;;;57.95;24.77;;;;;;;;;;4971616;28;20582;-62
2023/01/25 12:46:24;;;;;;;62.13;25.35;;;;;;;;;;4970649;28;20093;-62
2023/01/25 12:48:52;;;;;;;62.05;25.73;;;;;;;;;;4970584;28;20058;-63
2023/01/25 12:51:19;;;;;;;60.38;24.75;;;;;;;;;;4970686;28;20073;-62
2023/01/25 12:53:46;;;;;;;59.97;24.63;;;;;;;;;;4970728;28;20118;-62
2023/01/25 12:56:27;;;;;;;63.53;25.60;;;;;;;;;;4970691;28;20061;-63
2023/01/25 12:58:57;;;;;;;56.45;24.40;;;;;;;;;;4963891;28;20090;-62
2023/01/25 13:01:42;;;;;;;59.92;25.40;;;;;;;;;;4969560;28;20050;-62
2023/01/25 13:04:38;;;;;;;59.95;24.52;;;;;;;;;;4952388;28;20123;-63
2023/01/25 13:07:23;;;;;;;57.47;25.08;;;;;;;;;;4960728;28;20055;-63
2023/01/25 13:10:04;;;;;;;60.63;24.17;;;;;;;;;;4963461;28;20117;-63
2023/01/25 13:12:49;;;;;;;62.05;26.15;;;;;;;;;;4959997;28;20066;-63
2023/01/25 13:15:34;;;;;;;61.60;26.33;;;;;;;;;;4970400;28;20043;-63
2023/01/25 13:18:01;;;;;;;64.78;24.80;;;;;;;;;;4964698;28;20036;-63
2023/01/25 13:20:39;;;;;;;61.33;26.20;;;;;;;;;;4968831;28;20061;-63
2023/01/25 13:23:24;;;;;;;63.03;26.88;;;;;;;;;;4970263;28;20089;-63
2023/01/25 13:25:50;;;;;;;61.55;25.35;;;;;;;;;;4967942;28;20047;-62
2023/01/25 13:28:35;;;;;;;64.63;26.58;;;;;;;;;;4970538;28;20101;-62
2023/01/25 13:31:01;;;;;;;61.33;26.48;;;;;;;;;;4962379;28;20047;-63
2023/01/25 13:33:34;;;;;;;59.20;25.27;;;;;;;;;;4953802;28;20049;-63
2023/01/25 13:36:19;;;;;;;62.50;26.88;;;;;;;;;;4951717;28;20118;-63
2023/01/25 13:38:45;;;;;;;62.38;24.15;;;;;;;;;;4961582;28;20042;-63
2023/01/25 13:41:14;;;;;;;65.32;25.75;;;;;;;;;;4971068;28;20035;-64
2023/01/25 13:43:41;;;;;;;59.42;24.48;;;;;;;;;;4969882;28;20386;-63
2023/01/25 13:46:09;;;;;;;68.03;25.02;;;;;;;;;;4974069;28;20465;-63
2023/01/25 13:48:36;;;;;;;61.88;24.52;;;;;;;;;;4974285;28;20746;-63
2023/01/25 13:51:07;;;;;;;66.97;26.45;;;;;;;;;;4973954;28;20046;-64
2023/01/25 13:53:34;;;;;;;64.85;25.17;;;;;;;;;;4956312;28;20127;-63
2023/01/25 13:56:01;;;;;;;58.70;24.23;;;;;;;;;;4974664;28;20045;-63
2023/01/25 13:58:35;;;;;;;59.20;22.90;;;;;;;;;;4973340;28;20039;-64
2023/01/25 14:01:05;;;;;;;57.75;23.13;;;;;;;;;;4954567;29;20059;-63
2023/01/25 14:03:34;;;;;;;61.25;26.33;;;;;;;;;;4954017;28;20047;-64
2023/01/25 14:06:06;;;;;;;58.80;23.98;;;;;;;;;;4959147;28;20038;-63
2023/01/25 14:08:32;;;;;;;61.00;23.92;;;;;;;;;;4973534;28;20047;-63
2023/01/25 14:10:58;;;;;;;57.63;23.67;;;;;;;;;;4952238;29;20172;-63
2023/01/25 14:13:25;;;;;;;62.38;23.92;;;;;;;;;;4968785;28;20448;-63
2023/01/25 14:15:56;;;;;;;63.72;24.98;;;;;;;;;;4965263;28;20035;-63
2023/01/25 14:18:26;;;;;;;58.08;23.77;;;;;;;;;;4960803;28;20104;-64
2023/01/25 14:21:08;;;;;;;61.22;23.65;;;;;;;;;;4954348;28;20090;-64
2023/01/25 14:23:34;;;;;;;57.33;22.73;;;;;;;;;;4953856;28;20102;-64
2023/01/25 14:26:01;;;;;;;64.45;25.30;;;;;;;;;;4959222;28;20414;-63
2023/01/25 14:28:28;;;;;;;60.10;24.85;;;;;;;;;;4954373;28;20043;-63
2023/01/25 14:30:55;;;;;;;56.83;23.98;;;;;;;;;;4964763;28;20315;-64
2023/01/25 14:33:24;;;;;;;58.88;23.65;;;;;;;;;;4972801;28;20042;-64